createdAt,value
2023-05-12T00:02:05.159Z,65.44
2023-05-12T00:04:33.014Z,63.07
2023-05-12T00:07:00.918Z,60.84
2023-05-12T00:09:29.994Z,57.53
2023-05-12T00:11:58.562Z,56.32
2023-05-12T00:14:26.569Z,57.75
2023-05-12T00:16:55.028Z,58.87
2023-05-12T00:19:23.235Z,60.25
2023-05-12T00:21:51.136Z,64.92
2023-05-12T00:24:18.915Z,67.28
2023-05-12T00:26:46.716Z,64.89
2023-05-12T00:29:14.781Z,61.61
2023-05-12T00:31:42.597Z,60.67
2023-05-12T00:34:10.449Z,58.07
2023-05-12T00:36:39.438Z,56.49
2023-05-12T00:39:07.301Z,57.72
2023-05-12T00:41:36.839Z,58.72
2023-05-12T00:44:05.897Z,60.12
2023-05-12T00:46:34.084Z,64.56
2023-05-12T00:49:03.221Z,67.35
2023-05-12T00:51:32.793Z,65.07
2023-05-12T00:54:00.634Z,61.74
2023-05-12T00:56:29.185Z,59.39
2023-05-12T00:58:57.871Z,55.45
2023-05-12T01:01:25.745Z,55.90
2023-05-12T01:03:56.759Z,58.81
2023-05-12T01:06:53.936Z,60.39
2023-05-12T01:09:22.676Z,64.18
2023-05-12T01:11:51.324Z,63.55
2023-05-12T01:14:19.678Z,61.54
2023-05-12T01:17:13.729Z,58.63
2023-05-12T01:19:57.467Z,56.50
2023-05-12T01:22:29.036Z,58.95
2023-05-12T01:25:08.380Z,62.97
2023-05-12T01:27:40.544Z,64.26
2023-05-12T01:30:13.162Z,58.85
2023-05-12T01:32:42.115Z,57.53
2023-05-12T01:35:10.966Z,59.81
2023-05-12T01:37:38.863Z,63.31
2023-05-12T01:40:08.464Z,64.81
2023-05-12T01:42:40.839Z,63.17
2023-05-12T01:45:09.942Z,57.54
2023-05-12T01:47:37.929Z,57.56
2023-05-12T01:50:07.579Z,60.30
2023-05-12T01:52:36.923Z,63.56
2023-05-12T01:55:05.999Z,62.95
2023-05-12T01:57:33.899Z,61.21
2023-05-12T02:00:01.898Z,57.12
2023-05-12T02:02:31.756Z,58.65
2023-05-12T02:05:02.413Z,60.39
2023-05-12T02:07:30.510Z,64.51
2023-05-12T02:09:58.990Z,65.32
2023-05-12T02:12:30.389Z,61.18
2023-05-12T02:14:58.299Z,56.12
2023-05-12T02:17:26.272Z,56.00
2023-05-12T02:19:54.500Z,59.97
2023-05-12T02:22:22.604Z,62.63
2023-05-12T02:24:50.497Z,64.38
2023-05-12T02:27:18.396Z,63.76
2023-05-12T02:29:46.845Z,60.29
2023-05-12T02:32:14.763Z,56.02
2023-05-12T02:34:42.810Z,57.04
2023-05-12T02:37:11.064Z,58.45
2023-05-12T02:39:40.045Z,59.50
2023-05-12T02:42:08.002Z,63.80
2023-05-12T02:44:36.225Z,65.52
2023-05-12T02:47:04.751Z,62.14
2023-05-12T02:49:32.658Z,56.77
2023-05-12T02:52:00.529Z,54.87
2023-05-12T02:54:28.590Z,55.97
2023-05-12T02:56:58.450Z,57.46
2023-05-12T02:59:26.446Z,62.63
2023-05-12T03:01:55.006Z,64.05
2023-05-12T03:04:23.162Z,61.79
2023-05-12T03:06:51.302Z,57.32
2023-05-12T03:09:19.276Z,57.65
2023-05-12T03:11:47.847Z,60.88
2023-05-12T03:14:15.664Z,63.47
2023-05-12T03:16:43.665Z,62.39
2023-05-12T03:19:11.741Z,60.42
2023-05-12T03:21:41.979Z,57.53
2023-05-12T03:24:09.983Z,58.61
2023-05-12T03:26:39.219Z,62.75
2023-05-12T03:29:09.433Z,63.58
2023-05-12T03:31:38.208Z,61.44
2023-05-12T03:34:06.498Z,58.64
2023-05-12T03:36:37.504Z,59.16
2023-05-12T03:39:05.589Z,61.41
2023-05-12T03:41:33.698Z,64.51
2023-05-12T03:44:01.606Z,64.58
2023-05-12T03:46:29.458Z,61.05
2023-05-12T03:48:59.038Z,58.73
2023-05-12T03:51:28.283Z,60.13
2023-05-12T03:53:56.181Z,61.72
2023-05-12T03:56:24.938Z,65.38
2023-05-12T03:58:52.934Z,62.84
2023-05-12T04:01:21.095Z,59.36
2023-05-12T04:03:49.088Z,58.14
2023-05-12T04:06:19.033Z,60.34
2023-05-12T04:08:55.021Z,63.58
2023-05-12T04:11:23.807Z,63.62
2023-05-12T04:13:51.729Z,60.33
2023-05-12T04:16:20.323Z,56.96
2023-05-12T04:18:49.913Z,56.83
2023-05-12T04:21:18.025Z,58.30
2023-05-12T04:23:45.953Z,59.23
2023-05-12T04:26:13.808Z,60.30
2023-05-12T04:28:42.028Z,66.77
2023-05-12T04:31:10.033Z,68.58
2023-05-12T04:33:37.936Z,64.13
2023-05-12T04:36:06.276Z,58.82
2023-05-12T04:38:34.395Z,53.58
2023-05-12T04:41:03.533Z,54.81
2023-05-12T04:46:02.477Z,58.13
2023-05-12T04:48:30.476Z,59.86
2023-05-12T04:51:02.452Z,61.51
2023-05-12T04:53:34.727Z,66.19
2023-05-12T04:56:03.784Z,63.45
2023-05-12T04:58:31.820Z,61.13
2023-05-12T05:01:01.055Z,56.68
2023-05-12T05:03:29.119Z,57.95
2023-05-12T05:05:58.101Z,61.31
2023-05-12T05:08:25.982Z,63.71
2023-05-12T05:10:54.163Z,62.30
2023-05-12T05:13:22.417Z,59.82
2023-05-12T05:15:52.717Z,57.83
2023-05-12T05:18:24.074Z,59.82
2023-05-12T05:20:57.860Z,62.67
2023-05-12T05:23:30.191Z,62.90
2023-05-12T05:25:58.014Z,59.60
2023-05-12T05:28:26.804Z,57.91
2023-05-12T05:30:54.695Z,59.63
2023-05-12T05:33:22.882Z,62.31
2023-05-12T05:35:51.357Z,63.27
2023-05-12T05:38:19.395Z,60.79
2023-05-12T05:40:53.803Z,58.17
2023-05-12T05:43:22.507Z,58.68
2023-05-12T05:45:51.607Z,61.04
2023-05-12T05:48:19.913Z,63.30
2023-05-12T05:50:48.919Z,61.68
2023-05-12T05:53:19.527Z,59.33
2023-05-12T05:55:51.925Z,56.70
2023-05-12T05:58:19.781Z,58.77
2023-05-12T06:00:47.744Z,59.30
2023-05-12T06:03:15.857Z,61.47
2023-05-12T06:05:44.449Z,63.24
2023-05-12T06:08:13.697Z,62.54
2023-05-12T06:10:42.219Z,58.37
2023-05-12T06:13:10.827Z,54.34
2023-05-12T06:15:38.782Z,55.91
2023-05-12T06:18:06.979Z,57.43
2023-05-12T06:20:38.459Z,60.12
2023-05-12T06:23:09.656Z,61.38
2023-05-12T06:25:41.705Z,62.46
2023-05-12T06:28:09.548Z,63.46
2023-05-12T06:30:37.523Z,57.76
2023-05-12T06:33:05.874Z,55.71
2023-05-12T06:35:34.017Z,57.14
2023-05-12T06:38:06.481Z,58.96
2023-05-12T06:40:34.664Z,60.69
2023-05-12T06:43:03.217Z,61.80
2023-05-12T06:45:31.115Z,62.69
2023-05-12T06:47:59.088Z,60.71
2023-05-12T06:50:27.412Z,56.53
2023-05-12T06:52:55.268Z,57.21
2023-05-12T06:55:25.315Z,59.44
2023-05-12T06:57:56.057Z,60.26
2023-05-12T07:00:25.994Z,61.23
2023-05-12T07:02:54.541Z,62.12
2023-05-12T07:05:22.906Z,62.54
2023-05-12T07:07:51.450Z,58.62
2023-05-12T07:10:21.158Z,55.92
2023-05-12T07:12:49.134Z,56.18
2023-05-12T07:15:20.123Z,57.47
2023-05-12T07:17:48.560Z,58.30
2023-05-12T07:20:16.969Z,59.18
2023-05-12T07:22:45.396Z,59.41
2023-05-12T07:25:13.605Z,59.18
2023-05-12T07:27:41.879Z,60.56
2023-05-12T07:30:11.395Z,60.33
2023-05-12T07:32:39.270Z,60.85
2023-05-12T07:35:08.130Z,61.12
2023-05-12T07:37:36.140Z,61.03
2023-05-12T07:40:04.998Z,60.50
2023-05-12T07:42:33.054Z,60.77
2023-05-12T07:45:01.030Z,60.36
2023-05-12T07:47:29.046Z,59.50
2023-05-12T07:49:57.095Z,59.70
2023-05-12T07:52:25.574Z,60.10
2023-05-12T07:54:53.537Z,59.96
2023-05-12T07:57:21.584Z,59.34
2023-05-12T07:59:51.028Z,59.69
2023-05-12T08:02:20.764Z,59.74
2023-05-12T08:04:52.036Z,59.45
2023-05-12T08:07:20.136Z,59.60
2023-05-12T08:09:48.862Z,59.02
2023-05-12T08:12:16.659Z,59.33
2023-05-12T08:14:47.227Z,59.18
2023-05-12T08:17:17.298Z,59.03
2023-05-12T08:19:45.303Z,58.87
2023-05-12T08:22:13.595Z,58.61
2023-05-12T08:24:43.137Z,58.86
2023-05-12T08:27:13.958Z,58.43
2023-05-12T08:29:41.849Z,57.87
2023-05-12T08:32:15.091Z,57.60
2023-05-12T08:34:43.134Z,57.80
2023-05-12T08:37:12.633Z,57.10
2023-05-12T08:39:41.772Z,56.93
2023-05-12T08:42:25.706Z,56.46
2023-05-12T08:44:54.703Z,56.01
2023-05-12T08:47:26.721Z,55.29
2023-05-12T08:50:03.531Z,55.62
2023-05-12T08:52:36.611Z,55.13
2023-05-12T08:55:05.524Z,54.36
2023-05-12T08:57:34.617Z,54.85
2023-05-12T09:00:05.155Z,54.57
2023-05-12T09:02:48.323Z,54.41
2023-05-12T09:05:20.949Z,54.41
2023-05-12T09:07:50.554Z,54.44
2023-05-12T09:10:34.497Z,54.23
2023-05-12T09:13:12.569Z,54.51
2023-05-12T09:15:46.061Z,54.57
2023-05-12T09:18:14.936Z,54.22
2023-05-12T09:20:43.277Z,54.22
2023-05-12T09:23:24.886Z,54.06
2023-05-12T09:26:01.621Z,53.95
2023-05-12T09:28:39.101Z,53.61
2023-05-12T09:31:24.935Z,53.50
2023-05-12T09:33:53.165Z,52.59
2023-05-12T09:36:26.236Z,51.74
2023-05-12T09:39:10.490Z,51.72
2023-05-12T09:41:41.005Z,51.94
2023-05-12T09:44:13.467Z,51.48
2023-05-12T09:46:41.399Z,50.91
2023-05-12T09:49:09.223Z,50.92
2023-05-12T09:51:37.898Z,50.47
2023-05-12T09:54:09.408Z,50.54
2023-05-12T09:56:38.563Z,50.40
2023-05-12T09:59:11.308Z,49.91
2023-05-12T10:01:39.607Z,49.26
2023-05-12T10:04:09.304Z,48.91
2023-05-12T10:06:43.423Z,48.44
2023-05-12T10:09:26.185Z,48.33
2023-05-12T10:11:54.603Z,48.41
2023-05-12T10:14:25.731Z,48.30
2023-05-12T10:16:55.175Z,48.45
2023-05-12T10:19:25.866Z,48.61
2023-05-12T10:21:59.650Z,48.57
2023-05-12T10:24:28.434Z,48.43
2023-05-12T10:26:57.883Z,48.59
2023-05-12T10:29:30.563Z,48.44
2023-05-12T10:32:03.691Z,48.97
2023-05-12T10:34:37.897Z,48.73
2023-05-12T10:37:11.391Z,48.79
2023-05-12T10:39:52.696Z,48.03
2023-05-12T10:42:26.521Z,48.70
2023-05-12T10:44:56.513Z,47.33
2023-05-12T10:47:29.491Z,48.81
2023-05-12T10:49:59.810Z,48.43
2023-05-12T10:52:27.772Z,48.56
2023-05-12T10:55:39.275Z,48.29
2023-05-12T10:57:53.329Z,47.88
2023-05-12T11:00:27.010Z,47.75
2023-05-12T11:02:59.280Z,47.96
2023-05-12T11:05:35.237Z,47.62
2023-05-12T11:08:04.674Z,47.30
2023-05-12T11:10:35.795Z,46.89
2023-05-12T11:13:04.765Z,46.91
2023-05-12T11:15:32.612Z,46.97
2023-05-12T11:18:05.343Z,47.39
2023-05-12T11:20:34.827Z,46.92
2023-05-12T11:23:03.866Z,46.79
2023-05-12T11:25:33.397Z,47.48
2023-05-12T11:28:03.585Z,47.83
2023-05-12T11:30:31.600Z,47.90
2023-05-12T11:33:03.889Z,48.01
2023-05-12T11:35:32.604Z,47.60
2023-05-12T11:38:02.935Z,47.68
2023-05-12T11:40:31.429Z,46.98
2023-05-12T11:43:11.194Z,46.82
2023-05-12T11:45:39.002Z,46.84
2023-05-12T11:48:14.311Z,46.78
2023-05-12T11:50:46.800Z,46.61
2023-05-12T11:53:18.690Z,46.56
2023-05-12T11:55:56.574Z,46.43
2023-05-12T11:58:31.659Z,46.74
2023-05-12T12:01:12.297Z,46.92
2023-05-12T12:03:49.889Z,46.93
2023-05-12T12:06:20.139Z,46.68
2023-05-12T12:08:52.526Z,46.29
2023-05-12T12:11:26.869Z,46.52
2023-05-12T12:13:57.128Z,46.17
2023-05-12T12:16:27.652Z,46.18
2023-05-12T12:18:57.140Z,46.07
2023-05-12T12:21:26.791Z,46.03
2023-05-12T12:23:54.790Z,45.64
2023-05-12T12:26:23.578Z,45.99
2023-05-12T12:28:53.765Z,45.85
2023-05-12T12:31:22.668Z,45.75
2023-05-12T12:33:50.851Z,45.16
2023-05-12T12:36:18.673Z,44.37
2023-05-12T12:38:47.786Z,44.00
2023-05-12T12:41:16.761Z,43.56
2023-05-12T12:43:44.745Z,43.25
2023-05-12T12:46:12.914Z,42.23
2023-05-12T12:48:41.383Z,41.71
2023-05-12T12:51:10.383Z,43.38
2023-05-12T12:53:38.593Z,43.17
2023-05-12T12:56:07.104Z,42.33
2023-05-12T12:58:35.573Z,42.16
2023-05-12T13:01:06.033Z,41.66
2023-05-12T13:03:34.105Z,41.59
2023-05-12T13:06:03.587Z,42.12
2023-05-12T13:08:31.458Z,42.53
2023-05-12T13:11:01.314Z,42.89
2023-05-12T13:13:29.267Z,42.79
2023-05-12T13:15:57.085Z,42.50
2023-05-12T13:18:25.203Z,42.73
2023-05-12T13:20:54.253Z,42.82
2023-05-12T13:23:22.158Z,42.44
2023-05-12T13:25:52.129Z,42.50
2023-05-12T13:28:22.449Z,42.72
2023-05-12T13:30:54.233Z,42.79
2023-05-12T13:33:22.335Z,42.25
2023-05-12T13:35:50.220Z,41.85
2023-05-12T13:38:18.326Z,41.47
2023-05-12T13:40:46.285Z,42.24
2023-05-12T13:43:14.731Z,42.79
2023-05-12T13:45:42.940Z,42.96
2023-05-12T13:48:11.058Z,43.05
2023-05-12T13:50:38.929Z,43.38
2023-05-12T13:53:06.856Z,43.78
2023-05-12T13:55:40.574Z,43.94
2023-05-12T13:58:09.155Z,44.07
2023-05-12T14:00:37.767Z,44.13
2023-05-12T14:03:06.044Z,44.34
2023-05-12T14:05:34.160Z,44.37
2023-05-12T14:08:02.653Z,44.14
2023-05-12T14:10:32.681Z,43.93
2023-05-12T14:13:01.709Z,43.73
2023-05-12T14:15:40.634Z,43.89
2023-05-12T14:18:15.768Z,44.12
2023-05-12T14:20:43.791Z,44.25
2023-05-12T14:23:11.704Z,44.22
2023-05-12T14:25:39.906Z,43.53
2023-05-12T14:28:07.925Z,43.53
2023-05-12T14:30:37.259Z,43.40
2023-05-12T14:33:05.358Z,44.40
2023-05-12T14:35:33.400Z,45.14
2023-05-12T14:38:01.193Z,44.95
2023-05-12T14:40:31.813Z,44.98
2023-05-12T14:43:00.201Z,45.00
2023-05-12T14:45:29.419Z,45.01
2023-05-12T14:47:57.622Z,44.85
2023-05-12T14:50:25.764Z,44.70
2023-05-12T14:52:53.658Z,44.47
2023-05-12T14:55:22.511Z,44.60
2023-05-12T14:57:51.352Z,44.62
2023-05-12T15:00:21.574Z,44.37
2023-05-12T15:02:49.715Z,44.39
2023-05-12T15:05:17.926Z,44.76
2023-05-12T15:07:46.505Z,44.86
2023-05-12T15:10:14.390Z,45.05
2023-05-12T15:12:42.172Z,45.20
2023-05-12T15:15:11.799Z,45.38
2023-05-12T15:17:40.554Z,45.93
2023-05-12T15:20:09.944Z,46.89
2023-05-12T15:22:39.807Z,47.37
2023-05-12T15:25:08.843Z,47.40
2023-05-12T15:27:36.655Z,47.65
2023-05-12T15:30:06.057Z,47.75
2023-05-12T15:32:34.144Z,47.28
2023-05-12T15:35:01.912Z,47.70
2023-05-12T15:37:29.989Z,47.77
2023-05-12T15:39:57.882Z,47.83
2023-05-12T15:42:30.034Z,47.54
2023-05-12T15:45:01.139Z,47.73
2023-05-12T15:47:29.119Z,47.86
2023-05-12T15:49:56.950Z,48.16
2023-05-12T15:52:25.354Z,48.64
2023-05-12T15:54:53.709Z,49.15
2023-05-12T15:57:21.628Z,49.31
2023-05-12T15:59:50.261Z,49.62
2023-05-12T16:02:19.507Z,49.94
2023-05-12T16:04:48.559Z,50.07
2023-05-12T16:07:17.282Z,50.60
2023-05-12T16:09:45.060Z,51.53
2023-05-12T16:12:13.102Z,53.82
2023-05-12T16:14:42.730Z,54.26
2023-05-12T16:17:10.735Z,54.25
2023-05-12T16:19:38.725Z,55.64
2023-05-12T16:22:06.844Z,57.01
2023-05-12T16:24:35.054Z,56.80
2023-05-12T16:27:03.108Z,56.63
2023-05-12T16:29:31.459Z,56.41
2023-05-12T16:31:59.313Z,55.60
2023-05-12T16:34:29.336Z,56.31
2023-05-12T16:36:57.164Z,56.02
2023-05-12T16:39:27.359Z,56.23
2023-05-12T16:41:56.009Z,56.15
2023-05-12T16:44:23.844Z,55.57
2023-05-12T16:46:52.944Z,55.24
2023-05-12T16:49:20.723Z,55.47
2023-05-12T16:51:48.767Z,54.96
2023-05-12T16:54:18.106Z,54.98
2023-05-12T16:56:47.391Z,54.67
2023-05-12T16:59:15.609Z,55.08
2023-05-12T17:01:43.539Z,55.63
2023-05-12T17:04:15.634Z,55.76
2023-05-12T17:06:44.839Z,55.82
2023-05-12T17:09:15.046Z,55.92
2023-05-12T17:11:42.975Z,55.94
2023-05-12T17:14:11.082Z,56.35
2023-05-12T17:16:40.270Z,56.33
2023-05-12T17:21:40.234Z,56.23
2023-05-12T17:24:09.254Z,55.95
2023-05-12T17:26:37.919Z,56.37
2023-05-12T17:29:06.199Z,56.92
2023-05-12T17:31:34.242Z,57.04
2023-05-12T17:34:03.301Z,57.49
2023-05-12T17:36:31.400Z,57.48
2023-05-12T17:38:59.258Z,57.81
2023-05-12T17:41:29.048Z,58.06
2023-05-12T17:43:57.359Z,58.65
2023-05-12T17:46:25.630Z,59.37
2023-05-12T17:48:53.606Z,59.95
2023-05-12T17:51:21.602Z,59.41
2023-05-12T17:53:49.913Z,60.22
2023-05-12T17:56:19.772Z,60.03
2023-05-12T17:58:52.940Z,59.95
2023-05-12T18:01:21.133Z,59.94
2023-05-12T18:03:49.353Z,60.19
2023-05-12T18:06:18.597Z,61.06
2023-05-12T18:08:46.751Z,60.76
2023-05-12T18:11:15.545Z,61.35
2023-05-12T18:13:43.791Z,61.20
2023-05-12T18:16:21.682Z,60.97
2023-05-12T18:18:56.620Z,61.07
2023-05-12T18:21:25.957Z,64.92
2023-05-12T18:23:54.029Z,64.08
2023-05-12T18:26:22.573Z,62.21
2023-05-12T18:28:50.759Z,55.81
2023-05-12T18:31:20.056Z,53.73
2023-05-12T18:33:49.987Z,54.17
2023-05-12T18:36:18.027Z,54.96
2023-05-12T18:38:46.667Z,56.29
2023-05-12T18:41:14.690Z,56.68
2023-05-12T18:43:44.177Z,57.68
2023-05-12T18:46:13.038Z,57.49
2023-05-12T18:48:41.308Z,58.14
2023-05-12T18:51:09.759Z,58.75
2023-05-12T18:53:37.678Z,59.65
2023-05-12T18:56:06.365Z,60.09
2023-05-12T18:58:34.158Z,59.96
2023-05-12T19:01:14.813Z,61.06
2023-05-12T19:03:45.527Z,60.89
2023-05-12T19:06:14.273Z,66.12
2023-05-12T19:08:42.579Z,67.80
2023-05-12T19:11:11.245Z,62.07
2023-05-12T19:13:42.906Z,56.77
2023-05-12T19:16:11.784Z,54.17
2023-05-12T19:18:39.906Z,54.78
2023-05-12T19:21:08.635Z,56.13
2023-05-12T19:23:37.221Z,57.38
2023-05-12T19:26:07.372Z,59.10
2023-05-12T19:28:38.087Z,59.47
2023-05-12T19:31:06.113Z,60.77
2023-05-12T19:33:36.080Z,66.04
2023-05-12T19:36:04.890Z,66.54
2023-05-12T19:38:32.753Z,61.94
2023-05-12T19:41:00.958Z,55.87
2023-05-12T19:43:29.797Z,53.84
2023-05-12T19:45:57.859Z,55.48
2023-05-12T19:48:28.416Z,56.72
2023-05-12T19:50:56.356Z,58.03
2023-05-12T19:53:24.327Z,59.45
2023-05-12T19:55:53.877Z,60.63
2023-05-12T19:58:22.003Z,61.19
2023-05-12T20:00:50.054Z,67.29
2023-05-12T20:03:19.319Z,68.39
2023-05-12T20:05:48.553Z,63.95
2023-05-12T20:08:16.733Z,60.89
2023-05-12T20:10:44.560Z,54.98
2023-05-12T20:13:12.362Z,53.74
2023-05-12T20:15:41.041Z,54.65
2023-05-12T20:18:11.260Z,56.07
2023-05-12T20:20:39.514Z,56.84
2023-05-12T20:23:08.127Z,58.45
2023-05-12T20:25:36.894Z,59.53
2023-05-12T20:28:05.235Z,60.53
2023-05-12T20:30:35.194Z,65.95
2023-05-12T20:33:04.355Z,67.31
2023-05-12T20:35:32.518Z,62.68
2023-05-12T20:38:01.172Z,57.32
2023-05-12T20:40:29.106Z,54.67
2023-05-12T20:42:58.078Z,55.78
2023-05-12T20:45:26.173Z,56.53
2023-05-12T20:47:54.047Z,57.70
2023-05-12T20:50:24.109Z,58.58
2023-05-12T20:52:52.966Z,59.09
2023-05-12T20:55:21.444Z,60.17
2023-05-12T20:57:52.397Z,65.22
2023-05-12T21:00:21.832Z,66.69
2023-05-12T21:02:52.675Z,62.54
2023-05-12T21:05:21.267Z,58.03
2023-05-12T21:07:49.362Z,56.91
2023-05-12T21:10:17.443Z,58.08
2023-05-12T21:12:45.329Z,58.71
2023-05-12T21:15:13.800Z,59.63
2023-05-12T21:17:42.453Z,60.65
2023-05-12T21:20:12.486Z,66.60
2023-05-12T21:22:43.085Z,67.78
2023-05-12T21:25:11.476Z,62.64
2023-05-12T21:27:41.188Z,56.61
2023-05-12T21:30:12.019Z,54.64
2023-05-12T21:32:39.980Z,56.67
2023-05-12T21:35:09.900Z,57.64
2023-05-12T21:37:38.046Z,58.84
2023-05-12T21:40:07.194Z,59.71
2023-05-12T21:42:35.110Z,60.51
2023-05-12T21:45:03.119Z,67.04
2023-05-12T21:47:30.997Z,66.32
2023-05-12T21:49:59.503Z,62.07
2023-05-12T21:52:28.058Z,57.46
2023-05-12T21:54:56.508Z,55.70
2023-05-12T21:57:24.897Z,56.12
2023-05-12T21:59:53.180Z,58.36
2023-05-12T22:02:22.738Z,59.85
2023-05-12T22:04:50.746Z,60.13
2023-05-12T22:07:18.972Z,60.96
2023-05-12T22:09:46.763Z,67.60
2023-05-12T22:12:18.330Z,68.55
2023-05-12T22:14:46.144Z,62.19
2023-05-12T22:17:14.273Z,57.18
2023-05-12T22:19:42.346Z,56.03
2023-05-12T22:22:11.288Z,56.76
2023-05-12T22:24:39.413Z,57.92
2023-05-12T22:27:07.795Z,59.36
2023-05-12T22:29:35.713Z,60.31
2023-05-12T22:32:04.116Z,61.00
2023-05-12T22:34:32.275Z,66.65
2023-05-12T22:37:01.636Z,68.14
2023-05-12T22:39:29.483Z,63.09
2023-05-12T22:41:57.783Z,57.16
2023-05-12T22:44:26.668Z,55.86
2023-05-12T22:46:54.742Z,57.13
2023-05-12T22:49:22.741Z,58.67
2023-05-12T22:51:50.535Z,59.81
2023-05-12T22:54:18.686Z,60.57
2023-05-12T22:56:46.590Z,66.42
2023-05-12T22:59:15.581Z,66.20
2023-05-12T23:01:43.961Z,61.94
2023-05-12T23:04:11.959Z,57.27
2023-05-12T23:06:39.847Z,55.98
2023-05-12T23:09:07.816Z,56.98
2023-05-12T23:11:35.679Z,59.11
2023-05-12T23:14:03.483Z,60.42
2023-05-12T23:16:31.298Z,67.62
2023-05-12T23:18:59.274Z,66.19
2023-05-12T23:21:29.771Z,62.70
2023-05-12T23:23:57.580Z,56.91
2023-05-12T23:26:25.593Z,55.56
2023-05-12T23:28:53.513Z,56.49
2023-05-12T23:31:21.587Z,58.43
2023-05-12T23:33:50.048Z,60.12
2023-05-12T23:36:20.453Z,64.53
2023-05-12T23:38:53.685Z,66.36
2023-05-12T23:41:25.804Z,64.31
2023-05-12T23:43:54.237Z,62.35
2023-05-12T23:46:22.034Z,60.89
2023-05-12T23:48:49.990Z,59.97
2023-05-12T23:51:17.908Z,57.03
2023-05-12T23:53:45.719Z,57.12
2023-05-12T23:56:13.750Z,57.53
2023-05-12T23:58:42.097Z,59.17
